Time;durP1;ratioP1;P1;durP2;ratioP2;P2;SDS_P1;SDS_P2;PMS_P1;PMS_P2;Temp;Humidity;BMP_temperature;BMP_pressure;BME280_temperature;BME280_humidity;BME280_pressure;Samples;Min_cycle;Max_cycle;Signal;HPM_P1;HPM_P2
2023/01/04 05:02:04;;;;;;;8.87;6.60;;;2.80;99.90;;;;;;5294166;23;20996;-73
2023/01/04 05:04:31;;;;;;;9.33;6.53;;;2.70;99.90;;;;;;4987895;28;20458;-73
2023/01/04 05:06:58;;;;;;;8.97;6.50;;;2.80;99.90;;;;;;4987317;28;20499;-73
2023/01/04 05:09:25;;;;;;;10.47;6.60;;;2.80;99.90;;;;;;4987403;28;21130;-73
2023/01/04 05:14:36;;;;;;;8.87;7.00;;;2.90;99.90;;;;;;4987567;28;20423;-73
2023/01/04 05:17:04;;;;;;;11.70;6.10;;;2.90;99.90;;;;;;4987068;28;20454;-73
2023/01/04 05:19:31;;;;;;;9.73;6.17;;;2.90;99.90;;;;;;4987633;28;20462;-73
2023/01/04 05:21:57;;;;;;;6.57;5.70;;;3.00;99.90;;;;;;4987697;28;20478;-72
2023/01/04 05:24:24;;;;;;;7.50;5.70;;;3.00;99.90;;;;;;4986201;28;20459;-73
2023/01/04 05:26:51;;;;;;;9.33;6.53;;;3.00;99.90;;;;;;4986794;28;20495;-73
2023/01/04 05:31:58;;;;;;;6.97;6.23;;;3.20;99.90;;;;;;4986529;28;20557;-73
2023/01/04 05:34:26;;;;;;;11.90;7.43;;;3.20;99.90;;;;;;4987327;28;20466;-73
2023/01/04 05:36:53;;;;;;;7.60;6.40;;;3.20;99.90;;;;;;4986235;28;21045;-73
2023/01/04 05:39:20;;;;;;;9.83;7.43;;;3.30;99.90;;;;;;4986840;28;20455;-73
2023/01/04 05:44:30;;;;;;;11.20;7.00;;;3.20;99.90;;;;;;4979946;28;20456;-73
2023/01/04 05:46:57;;;;;;;12.63;7.20;;;3.30;99.90;;;;;;4986631;28;20654;-73
2023/01/04 05:49:23;;;;;;;9.80;6.57;;;3.20;99.90;;;;;;4987437;28;20455;-73
2023/01/04 05:51:51;;;;;;;10.87;7.40;;;3.30;99.90;;;;;;4987080;28;20472;-73
2023/01/04 05:54:19;;;;;;;8.43;6.23;;;3.40;99.90;;;;;;4986681;28;20463;-72
2023/01/04 05:56:45;;;;;;;9.10;6.60;;;3.40;99.90;;;;;;4986419;28;20802;-73
2023/01/04 05:59:12;;;;;;;8.13;5.90;;;3.40;99.90;;;;;;4987124;28;20462;-72
2023/01/04 06:01:39;;;;;;;9.57;5.73;;;3.50;99.90;;;;;;4986598;28;20479;-73
2023/01/04 06:04:06;;;;;;;10.90;6.10;;;3.50;99.90;;;;;;4987212;28;20452;-73
2023/01/04 06:06:32;;;;;;;8.77;6.50;;;3.60;99.90;;;;;;4986942;28;20491;-73
2023/01/04 06:09:00;;;;;;;7.83;6.67;;;3.60;99.90;;;;;;4986744;28;20459;-73
2023/01/04 06:11:27;;;;;;;9.33;6.03;;;3.60;99.90;;;;;;4986497;28;20480;-73
2023/01/04 06:13:54;;;;;;;6.97;5.63;;;3.70;99.90;;;;;;4986852;28;20463;-73
2023/01/04 06:16:21;;;;;;;7.20;5.80;;;3.70;99.90;;;;;;4986198;28;20456;-73
2023/01/04 06:18:47;;;;;;;7.13;5.90;;;3.70;99.90;;;;;;4986270;28;20840;-73
2023/01/04 06:21:14;;;;;;;7.77;6.10;;;3.80;99.90;;;;;;4986297;28;20475;-73
2023/01/04 06:23:41;;;;;;;9.10;6.30;;;3.80;99.90;;;;;;4986210;28;20943;-73
2023/01/04 06:26:09;;;;;;;8.00;5.70;;;3.80;99.90;;;;;;4985684;28;21276;-73
2023/01/04 06:28:36;;;;;;;7.33;5.50;;;3.90;99.90;;;;;;4986404;28;20463;-73
2023/01/04 06:31:04;;;;;;;6.10;5.50;;;3.90;99.90;;;;;;4986622;28;20770;-73
2023/01/04 06:33:31;;;;;;;6.87;5.53;;;3.90;99.90;;;;;;4986478;28;20826;-73
2023/01/04 06:35:59;;;;;;;6.43;5.47;;;4.00;99.90;;;;;;4986083;28;20506;-73
2023/01/04 06:38:26;;;;;;;7.20;5.33;;;4.00;99.90;;;;;;4986177;28;20456;-73
2023/01/04 06:40:53;;;;;;;5.33;4.70;;;4.00;99.90;;;;;;4985985;28;20486;-73
2023/01/04 06:43:21;;;;;;;6.00;4.87;;;4.10;99.90;;;;;;4986467;28;20963;-73
2023/01/04 06:45:48;;;;;;;5.90;4.70;;;4.10;99.90;;;;;;4986745;28;20463;-73
2023/01/04 06:48:15;;;;;;;5.40;4.83;;;4.10;99.90;;;;;;4985160;28;20499;-73
2023/01/04 06:50:41;;;;;;;6.10;4.77;;;4.20;99.90;;;;;;4985173;28;21014;-73
2023/01/04 06:53:08;;;;;;;8.60;4.77;;;4.20;99.90;;;;;;4986126;28;20777;-73
2023/01/04 06:55:35;;;;;;;6.67;4.73;;;4.20;99.90;;;;;;4986254;28;20451;-73
2023/01/04 06:58:02;;;;;;;5.20;4.70;;;4.30;99.90;;;;;;4985713;28;20456;-73
2023/01/04 07:00:30;;;;;;;6.50;5.27;;;4.30;99.90;;;;;;4986270;28;20457;-73
2023/01/04 07:02:57;;;;;;;6.60;5.40;;;4.30;99.90;;;;;;4986500;28;20451;-73
2023/01/04 07:05:23;;;;;;;5.63;4.80;;;4.40;99.90;;;;;;4985949;28;20452;-73
2023/01/04 07:07:50;;;;;;;7.57;4.47;;;4.40;99.90;;;;;;4985823;28;20487;-73
2023/01/04 07:10:17;;;;;;;8.30;5.20;;;4.40;99.90;;;;;;4985918;28;20467;-73
2023/01/04 07:12:44;;;;;;;6.37;5.30;;;4.50;99.90;;;;;;4986224;28;20754;-73
2023/01/04 07:15:11;;;;;;;7.37;5.30;;;4.50;99.90;;;;;;4986095;28;20955;-70
2023/01/04 07:17:39;;;;;;;7.17;5.20;;;4.60;99.90;;;;;;4985196;28;20478;-70
2023/01/04 07:20:07;;;;;;;5.40;4.50;;;4.60;99.90;;;;;;4985747;28;20458;-71
2023/01/04 07:22:34;;;;;;;7.93;4.37;;;4.60;99.90;;;;;;4986239;28;20505;-71
2023/01/04 07:25:01;;;;;;;5.00;4.50;;;4.70;99.90;;;;;;4986167;28;20479;-70
2023/01/04 07:27:27;;;;;;;4.97;3.60;;;4.70;99.90;;;;;;4985229;28;20491;-70
2023/01/04 07:29:54;;;;;;;4.83;3.43;;;4.80;99.90;;;;;;4985770;28;20455;-72
2023/01/04 07:32:21;;;;;;;4.20;3.63;;;4.80;99.90;;;;;;4985918;28;20481;-70
2023/01/04 07:34:49;;;;;;;5.20;3.10;;;4.90;99.90;;;;;;4985780;28;20467;-70
2023/01/04 07:37:16;;;;;;;7.53;3.57;;;4.90;99.90;;;;;;4984967;28;20446;-70
2023/01/04 07:39:43;;;;;;;3.90;3.50;;;5.00;99.90;;;;;;4985790;28;20456;-70
2023/01/04 07:42:10;;;;;;;3.97;3.53;;;5.10;99.90;;;;;;4985995;28;20475;-70
2023/01/04 07:44:37;;;;;;;3.67;2.83;;;5.20;99.90;;;;;;4985798;28;20459;-70
2023/01/04 07:47:04;;;;;;;2.97;2.30;;;5.20;99.90;;;;;;4986097;28;21353;-72
2023/01/04 07:49:31;;;;;;;6.23;2.73;;;5.30;99.90;;;;;;4989971;28;20444;-71
2023/01/04 07:51:59;;;;;;;4.33;2.40;;;5.40;99.90;;;;;;4989758;28;20466;-69
2023/01/04 07:54:26;;;;;;;2.50;2.30;;;5.50;99.90;;;;;;4989621;28;20451;-70
2023/01/04 07:56:53;;;;;;;7.43;2.10;;;5.50;99.90;;;;;;4988920;28;20459;-69
2023/01/04 07:59:21;;;;;;;2.60;1.97;;;5.60;99.90;;;;;;4989779;28;20462;-70
2023/01/04 08:01:49;;;;;;;2.23;2.03;;;5.60;99.90;;;;;;4989091;28;21058;-70
2023/01/04 08:04:17;;;;;;;3.67;2.00;;;5.70;99.90;;;;;;4989582;28;20461;-70
2023/01/04 08:06:46;;;;;;;4.03;2.13;;;5.70;99.90;;;;;;4988581;28;20447;-70
2023/01/04 08:09:14;;;;;;;2.28;2.00;;;5.70;99.90;;;;;;4988977;28;20444;-69
2023/01/04 08:11:41;;;;;;;2.80;1.83;;;5.90;99.90;;;;;;4989282;28;20236;-70
2023/01/04 08:14:07;;;;;;;2.20;2.00;;;5.90;99.90;;;;;;4989303;28;20825;-69
2023/01/04 08:16:37;;;;;;;3.87;2.17;;;5.90;99.90;;;;;;4988625;28;20458;-70
2023/01/04 08:19:06;;;;;;;2.93;1.80;;;5.90;99.90;;;;;;4989326;28;20446;-71
2023/01/04 08:21:34;;;;;;;5.00;2.10;;;5.90;99.90;;;;;;4988988;28;20486;-69
2023/01/04 08:24:02;;;;;;;2.47;2.27;;;5.90;99.90;;;;;;4988944;28;20943;-69
2023/01/04 08:26:30;;;;;;;3.07;2.10;;;6.00;99.90;;;;;;4988547;28;21096;-71
2023/01/04 08:28:57;;;;;;;3.37;2.43;;;6.00;99.90;;;;;;4988976;28;20986;-70
2023/01/04 08:31:26;;;;;;;4.00;2.43;;;6.00;99.90;;;;;;4989240;28;20467;-70
2023/01/04 08:33:54;;;;;;;4.53;2.60;;;6.10;99.90;;;;;;4989144;28;20451;-70
2023/01/04 08:36:23;;;;;;;2.57;2.20;;;6.10;99.90;;;;;;4988330;28;20450;-71
2023/01/04 08:38:51;;;;;;;4.13;2.50;;;6.10;99.90;;;;;;4988440;28;20447;-70
2023/01/04 08:41:18;;;;;;;3.60;2.50;;;6.20;99.90;;;;;;4988347;28;20479;-70
2023/01/04 08:43:47;;;;;;;4.80;2.90;;;6.10;99.90;;;;;;4988775;28;20521;-71
2023/01/04 08:46:14;;;;;;;3.30;2.80;;;6.20;99.90;;;;;;4988446;28;20462;-71
2023/01/04 08:48:42;;;;;;;3.50;2.80;;;6.20;99.90;;;;;;4988826;28;20491;-70
2023/01/04 08:51:12;;;;;;;4.73;2.87;;;6.20;99.90;;;;;;4988444;28;20474;-69
2023/01/04 08:53:39;;;;;;;4.10;3.20;;;6.20;99.90;;;;;;4988487;28;20458;-70
2023/01/04 08:56:06;;;;;;;6.13;2.80;;;6.30;99.90;;;;;;4987814;28;20463;-70
2023/01/04 08:58:35;;;;;;;2.67;2.47;;;6.30;99.90;;;;;;4987459;28;20806;-70
2023/01/04 09:01:05;;;;;;;3.07;2.77;;;6.30;99.90;;;;;;4988516;28;20492;-70
2023/01/04 09:03:32;;;;;;;7.47;2.53;;;6.40;99.90;;;;;;4988517;28;20459;-71
2023/01/04 09:06:03;;;;;;;4.07;2.63;;;6.40;99.90;;;;;;4987816;28;20528;-70
2023/01/04 09:08:31;;;;;;;2.80;2.50;;;6.40;99.90;;;;;;4988567;28;20541;-70
2023/01/04 09:10:58;;;;;;;4.20;3.27;;;6.50;99.90;;;;;;4988443;28;20549;-71
2023/01/04 09:13:25;;;;;;;4.60;2.83;;;6.50;99.90;;;;;;4987939;28;20936;-69
2023/01/04 09:15:52;;;;;;;3.53;2.57;;;6.50;99.90;;;;;;4988135;28;20447;-71
2023/01/04 09:18:20;;;;;;;3.60;2.83;;;6.50;99.90;;;;;;4987930;28;20459;-69
2023/01/04 09:20:47;;;;;;;5.00;3.17;;;6.50;99.90;;;;;;4988368;28;20483;-71
2023/01/04 09:23:13;;;;;;;2.50;2.30;;;6.60;99.90;;;;;;4988091;28;20471;-72
2023/01/04 09:25:40;;;;;;;3.83;1.90;;;6.60;99.90;;;;;;4988478;28;20455;-71
2023/01/04 09:28:07;;;;;;;4.40;1.70;;;6.60;99.90;;;;;;4987456;28;20495;-70
2023/01/04 09:30:34;;;;;;;4.30;2.80;;;6.70;99.90;;;;;;4987549;28;21573;-70
2023/01/04 09:33:00;;;;;;;2.40;2.20;;;6.70;99.90;;;;;;4988097;28;20455;-71
2023/01/04 09:35:29;;;;;;;3.80;1.73;;;6.70;99.90;;;;;;4987775;28;20955;-70
2023/01/04 09:37:56;;;;;;;2.60;2.00;;;6.70;99.90;;;;;;4987214;28;20447;-70
2023/01/04 09:40:28;;;;;;;3.10;1.70;;;6.70;99.90;;;;;;4987751;28;20578;-71
2023/01/04 09:42:55;;;;;;;2.13;1.87;;;6.70;99.90;;;;;;4987780;28;20455;-72
2023/01/04 09:45:26;;;;;;;2.40;1.83;;;6.80;99.90;;;;;;4987677;28;20455;-69
2023/01/04 09:47:59;;;;;;;2.20;2.00;;;6.80;99.90;;;;;;4986688;28;20850;-70
2023/01/04 09:50:34;;;;;;;3.80;1.83;;;6.80;99.90;;;;;;4987567;28;20959;-72
2023/01/04 09:53:09;;;;;;;3.17;2.20;;;6.80;99.90;;;;;;4987375;28;20443;-71
2023/01/04 09:55:39;;;;;;;2.10;1.53;;;6.90;99.90;;;;;;4987905;28;20455;-71
2023/01/04 09:58:13;;;;;;;2.50;1.67;;;6.90;99.90;;;;;;4986662;28;20459;-71
2023/01/04 10:00:44;;;;;;;3.43;1.70;;;7.00;99.90;;;;;;4986052;28;20988;-71
2023/01/04 10:03:15;;;;;;;1.63;1.53;;;7.00;99.90;;;;;;4987774;28;20440;-71
2023/01/04 10:05:44;;;;;;;2.00;1.67;;;7.10;99.90;;;;;;4987999;28;20446;-71
2023/01/04 10:08:16;;;;;;;2.03;1.50;;;7.10;99.90;;;;;;4986754;28;20539;-70
2023/01/04 10:10:50;;;;;;;2.60;1.63;;;7.20;99.90;;;;;;4986833;28;20468;-71
2023/01/04 10:13:29;;;;;;;2.93;1.80;;;7.20;99.90;;;;;;4987404;28;20538;-71
2023/01/04 10:16:07;;;;;;;1.90;1.40;;;7.20;99.90;;;;;;4986404;28;20975;-70
2023/01/04 10:18:42;;;;;;;1.80;1.70;;;7.30;99.90;;;;;;4987248;28;20790;-71
2023/01/04 10:21:25;;;;;;;2.37;1.63;;;7.30;99.90;;;;;;4987152;28;20463;-71
2023/01/04 10:24:03;;;;;;;1.87;1.37;;;7.40;99.90;;;;;;4987130;28;20447;-71
2023/01/04 10:26:37;;;;;;;4.70;1.60;;;7.40;99.90;;;;;;4986490;28;20448;-71
2023/01/04 10:29:29;;;;;;;3.07;1.50;;;7.40;99.90;;;;;;4987063;28;20498;-71
2023/01/04 10:32:00;;;;;;;2.60;1.73;;;7.50;99.90;;;;;;4987102;28;20482;-71
2023/01/04 10:34:30;;;;;;;1.60;1.50;;;7.60;99.90;;;;;;4986649;28;20473;-70
2023/01/04 10:37:00;;;;;;;1.60;1.50;;;7.60;99.90;;;;;;4986150;28;20459;-71
2023/01/04 10:39:31;;;;;;;1.57;1.40;;;7.60;99.90;;;;;;4986433;28;20436;-71
2023/01/04 10:42:00;;;;;;;4.73;1.53;;;7.70;99.90;;;;;;4986352;28;20976;-70
2023/01/04 10:44:37;;;;;;;2.73;1.40;;;7.70;99.90;;;;;;4986386;28;20939;-71
2023/01/04 10:47:10;;;;;;;4.80;1.30;;;7.80;99.90;;;;;;4985675;28;20451;-71
2023/01/04 10:49:44;;;;;;;1.50;1.40;;;7.80;99.90;;;;;;4986538;28;20510;-71
2023/01/04 10:52:16;;;;;;;1.90;1.43;;;7.80;99.90;;;;;;4985813;28;20515;-71
2023/01/04 10:54:50;;;;;;;1.73;1.40;;;7.80;99.90;;;;;;4986050;28;20452;-71
2023/01/04 10:57:22;;;;;;;2.07;1.37;;;7.80;99.90;;;;;;4985347;28;20825;-71
2023/01/04 10:59:54;;;;;;;2.83;1.47;;;7.90;99.90;;;;;;4986060;28;20450;-71
2023/01/04 11:02:27;;;;;;;1.70;1.37;;;8.00;99.90;;;;;;4986009;28;21119;-71
2023/01/04 11:05:00;;;;;;;3.33;1.83;;;8.00;99.90;;;;;;4986032;28;20449;-71
2023/01/04 11:07:36;;;;;;;1.30;1.20;;;8.10;99.90;;;;;;4985404;28;20431;-71
2023/01/04 11:10:09;;;;;;;3.97;1.77;;;8.10;99.90;;;;;;4986123;28;20467;-71
2023/01/04 11:12:36;;;;;;;2.43;1.47;;;8.20;99.90;;;;;;4985685;28;20674;-71
2023/01/04 11:15:04;;;;;;;2.60;1.70;;;8.20;99.90;;;;;;4986008;28;20462;-71
2023/01/04 11:17:32;;;;;;;5.73;1.90;;;8.30;99.90;;;;;;4985269;28;20460;-70
2023/01/04 11:19:59;;;;;;;2.13;1.43;;;8.40;99.90;;;;;;4985580;28;20913;-71
2023/01/04 11:22:33;;;;;;;1.57;1.30;;;8.40;99.90;;;;;;4985236;28;20482;-70
2023/01/04 11:25:03;;;;;;;1.37;1.27;;;8.40;99.90;;;;;;4986359;28;20447;-70
2023/01/04 11:27:35;;;;;;;2.43;1.47;;;8.50;99.90;;;;;;4985332;28;20448;-70
2023/01/04 11:30:09;;;;;;;1.80;1.67;;;8.60;99.90;;;;;;4985771;28;20526;-70
2023/01/04 11:32:42;;;;;;;3.63;1.80;;;8.60;99.90;;;;;;4985629;28;20486;-71
2023/01/04 11:35:08;;;;;;;2.70;1.37;;;8.60;99.90;;;;;;4985885;28;20463;-71
2023/01/04 11:37:39;;;;;;;3.10;1.30;;;8.70;99.90;;;;;;4985046;28;20467;-71
2023/01/04 11:40:27;;;;;;;1.67;1.33;;;8.80;99.90;;;;;;4985786;28;20444;-70
2023/01/04 11:43:12;;;;;;;1.73;1.40;;;8.80;99.90;;;;;;4981162;28;20959;-70
2023/01/04 11:45:39;;;;;;;1.77;1.40;;;8.80;99.90;;;;;;4985763;28;20439;-70
2023/01/04 11:48:06;;;;;;;2.40;2.00;;;8.80;99.90;;;;;;4985499;28;20444;-70
2023/01/04 11:50:39;;;;;;;3.57;1.73;;;8.80;99.90;;;;;;4985291;28;20484;-70
2023/01/04 11:53:29;;;;;;;2.30;1.40;;;8.80;99.90;;;;;;4985378;28;20864;-70
2023/01/04 11:56:10;;;;;;;1.50;1.40;;;8.90;99.90;;;;;;4984935;28;20443;-70
2023/01/04 11:58:37;;;;;;;4.57;1.63;;;8.90;99.90;;;;;;4985465;28;20870;-70
2023/01/04 12:01:04;;;;;;;1.43;1.33;;;8.90;99.90;;;;;;4985468;28;20495;-71
2023/01/04 12:03:36;;;;;;;2.60;1.80;;;8.90;99.90;;;;;;4985350;28;20451;-70
2023/01/04 12:06:03;;;;;;;3.10;1.53;;;9.00;99.90;;;;;;4985392;28;20471;-71
2023/01/04 12:08:33;;;;;;;4.00;1.40;;;9.00;99.90;;;;;;4985347;28;20503;-70
2023/01/04 12:11:03;;;;;;;1.70;1.60;;;9.00;99.90;;;;;;4985671;28;20475;-70
2023/01/04 12:13:31;;;;;;;3.00;1.10;;;9.10;99.90;;;;;;4985236;28;20459;-70
2023/01/04 12:16:05;;;;;;;2.20;1.60;;;9.00;99.90;;;;;;4985050;28;20470;-70
2023/01/04 12:18:37;;;;;;;2.83;1.93;;;9.10;99.90;;;;;;4985437;28;20756;-70
2023/01/04 12:21:04;;;;;;;1.60;1.40;;;9.10;99.90;;;;;;4985131;28;20482;-70
2023/01/04 12:23:33;;;;;;;1.93;1.50;;;9.10;99.90;;;;;;4985254;28;20456;-70
2023/01/04 12:26:01;;;;;;;2.40;1.73;;;9.10;99.90;;;;;;4984689;28;20450;-71
2023/01/04 12:28:30;;;;;;;2.57;1.83;;;9.10;99.90;;;;;;4984921;28;20879;-71
2023/01/04 12:31:26;;;;;;;3.73;3.00;;;9.20;99.90;;;;;;4985311;28;20479;-71
2023/01/04 12:33:55;;;;;;;2.90;1.67;;;9.20;99.90;;;;;;4986919;28;20451;-70
2023/01/04 12:36:57;;;;;;;1.60;1.50;;;9.20;99.90;;;;;;4988340;28;20459;-71
2023/01/04 12:39:38;;;;;;;1.50;1.40;;;9.20;99.90;;;;;;4988962;28;20824;-70
2023/01/04 12:42:25;;;;;;;2.23;1.40;;;9.20;99.90;;;;;;4988546;28;20485;-70
2023/01/04 12:45:14;;;;;;;1.97;1.57;;;9.20;99.90;;;;;;4989032;28;20463;-71
2023/01/04 12:50:29;;;;;;;1.70;1.40;;;9.20;99.90;;;;;;4988745;28;20986;-70
2023/01/04 12:53:03;;;;;;;1.50;1.20;;;9.20;99.90;;;;;;4988563;28;20954;-70
2023/01/04 12:55:57;;;;;;;1.57;1.47;;;9.20;99.90;;;;;;4988225;28;20443;-70
2023/01/04 12:58:41;;;;;;;2.47;1.27;;;9.20;99.90;;;;;;4988755;28;20458;-70
2023/01/04 13:01:23;;;;;;;3.57;1.27;;;9.20;99.90;;;;;;4988380;28;20533;-70
2023/01/04 13:03:55;;;;;;;2.77;1.40;;;9.20;99.90;;;;;;4988612;28;20801;-72
2023/01/04 13:06:23;;;;;;;2.90;1.30;;;9.30;99.90;;;;;;4988480;28;20495;-72
2023/01/04 13:08:53;;;;;;;6.63;2.47;;;9.30;99.90;;;;;;4988219;28;20487;-71
2023/01/04 13:11:43;;;;;;;4.13;1.40;;;9.30;99.90;;;;;;4988445;28;20507;-72
2023/01/04 13:14:17;;;;;;;2.90;1.30;;;9.40;99.90;;;;;;4988195;28;20466;-72
2023/01/04 13:16:52;;;;;;;3.17;1.50;;;9.40;99.90;;;;;;4987444;28;20445;-72
2023/01/04 13:19:21;;;;;;;1.87;1.40;;;9.40;99.90;;;;;;4988180;28;20451;-69
2023/01/04 13:21:51;;;;;;;1.87;1.40;;;9.50;99.90;;;;;;4988043;28;20475;-72
2023/01/04 13:24:24;;;;;;;1.47;1.30;;;9.50;99.90;;;;;;4987932;28;20459;-72
2023/01/04 13:26:52;;;;;;;1.40;1.20;;;9.60;99.90;;;;;;4987404;28;20463;-70
2023/01/04 13:29:21;;;;;;;1.20;1.00;;;9.60;99.90;;;;;;4987875;28;20511;-71
2023/01/04 13:31:57;;;;;;;1.77;1.50;;;9.70;99.90;;;;;;4987727;28;20475;-70
2023/01/04 13:34:31;;;;;;;1.17;1.07;;;9.70;99.90;;;;;;4988248;28;20839;-70
2023/01/04 13:37:07;;;;;;;3.63;1.40;;;9.70;99.90;;;;;;4986913;28;20943;-70
2023/01/04 13:39:36;;;;;;;1.20;1.10;;;9.70;99.90;;;;;;4987635;28;20458;-70
2023/01/04 13:42:05;;;;;;;2.07;1.57;;;9.80;99.90;;;;;;4987980;28;20490;-70
2023/01/04 13:45:01;;;;;;;3.80;1.50;;;9.80;99.90;;;;;;4987281;28;20483;-70
2023/01/04 13:47:29;;;;;;;3.10;1.33;;;9.80;99.90;;;;;;4986786;28;20829;-70
2023/01/04 13:49:56;;;;;;;3.90;1.60;;;9.90;99.90;;;;;;4987279;28;20878;-70
2023/01/04 13:52:23;;;;;;;2.20;1.30;;;9.90;99.90;;;;;;4987479;28;20857;-72
2023/01/04 13:54:51;;;;;;;1.93;1.00;;;9.90;99.90;;;;;;4987269;28;20472;-71
2023/01/04 13:57:20;;;;;;;1.50;1.40;;;10.00;99.90;;;;;;4986830;28;20837;-71
2023/01/04 13:59:48;;;;;;;1.40;1.27;;;10.00;99.90;;;;;;4987324;28;20456;-71
2023/01/04 14:02:17;;;;;;;2.70;1.27;;;10.00;99.90;;;;;;4987255;28;20479;-70
2023/01/04 14:04:45;;;;;;;2.60;1.10;;;10.00;99.90;;;;;;4987174;28;20498;-72
2023/01/04 14:07:12;;;;;;;1.93;1.37;;;10.40;99.90;;;;;;4987304;28;20463;-70
2023/01/04 14:09:46;;;;;;;2.03;1.40;;;10.40;99.90;;;;;;4987359;28;20499;-70
2023/01/04 14:12:17;;;;;;;3.17;1.60;;;10.30;99.90;;;;;;4987066;28;21107;-71
2023/01/04 14:14:51;;;;;;;1.77;1.33;;;10.30;99.90;;;;;;4987014;28;20456;-71
2023/01/04 14:17:25;;;;;;;1.60;1.20;;;10.30;99.90;;;;;;4986414;28;20456;-71
2023/01/04 14:19:56;;;;;;;2.53;1.30;;;10.20;99.90;;;;;;4983201;28;20465;-70
2023/01/04 14:22:41;;;;;;;4.93;1.27;;;10.20;99.90;;;;;;4967955;28;20552;-71
2023/01/04 14:25:47;;;;;;;2.67;1.27;;;10.20;99.90;;;;;;4967631;28;20448;-71
2023/01/04 14:28:26;;;;;;;2.63;1.63;;;10.30;99.90;;;;;;4967067;28;20456;-71
2023/01/04 14:30:55;;;;;;;1.80;1.20;;;10.20;99.90;;;;;;4967005;28;21062;-71
2023/01/04 14:33:27;;;;;;;3.33;1.30;;;10.30;99.90;;;;;;4967307;28;20449;-71
2023/01/04 14:36:02;;;;;;;1.70;1.30;;;10.30;99.90;;;;;;4967155;28;20459;-71
2023/01/04 14:38:29;;;;;;;1.60;1.27;;;10.30;99.90;;;;;;4967231;28;21330;-71
2023/01/04 14:40:56;;;;;;;2.23;1.17;;;10.30;99.90;;;;;;4967486;28;20472;-71
2023/01/04 14:43:44;;;;;;;2.60;1.17;;;10.30;99.90;;;;;;4967436;28;20475;-71
2023/01/04 14:46:11;;;;;;;1.10;1.00;;;10.30;99.90;;;;;;4966970;28;21209;-71
2023/01/04 14:48:38;;;;;;;2.50;1.20;;;10.40;99.90;;;;;;4967385;28;20456;-71
2023/01/04 14:51:05;;;;;;;2.37;1.27;;;10.40;99.90;;;;;;4967360;28;20501;-71
2023/01/04 14:53:32;;;;;;;5.50;1.40;;;10.40;99.90;;;;;;4967092;28;20484;-75
2023/01/04 14:55:59;;;;;;;1.93;1.33;;;10.40;99.90;;;;;;4966623;28;21238;-71
2023/01/04 14:58:26;;;;;;;1.20;1.10;;;10.40;99.90;;;;;;4966501;28;20545;-71
2023/01/04 15:00:54;;;;;;;1.50;1.40;;;10.40;99.90;;;;;;4967122;28;20493;-71
2023/01/04 15:03:21;;;;;;;1.60;1.50;;;10.40;99.90;;;;;;4967249;28;20452;-71
2023/01/04 15:05:48;;;;;;;4.23;1.90;;;10.50;99.90;;;;;;4967110;28;20448;-71
2023/01/04 15:08:15;;;;;;;2.03;1.60;;;10.50;99.90;;;;;;4966280;28;20460;-71
2023/01/04 15:10:42;;;;;;;2.77;1.20;;;10.50;99.90;;;;;;4966609;28;20589;-71
2023/01/04 15:13:09;;;;;;;1.50;1.30;;;10.50;99.90;;;;;;4966836;28;20828;-71
2023/01/04 15:15:35;;;;;;;2.67;1.43;;;10.50;99.90;;;;;;4966888;28;20451;-71
2023/01/04 15:18:04;;;;;;;2.10;1.10;;;10.50;99.90;;;;;;4966300;28;20452;-71
2023/01/04 15:20:31;;;;;;;3.87;1.10;;;10.50;99.90;;;;;;4966838;28;20444;-72
2023/01/04 15:22:57;;;;;;;0.90;0.90;;;10.50;99.90;;;;;;4967060;28;20458;-71
2023/01/04 15:25:26;;;;;;;1.10;1.00;;;10.50;99.90;;;;;;4966532;28;20453;-71
2023/01/04 15:27:52;;;;;;;1.80;1.10;;;10.50;99.90;;;;;;4965951;28;20999;-71
2023/01/04 15:30:19;;;;;;;1.47;1.20;;;10.50;99.90;;;;;;4966383;28;21114;-71
2023/01/04 15:32:46;;;;;;;0.93;0.83;;;10.50;99.90;;;;;;4966497;28;20997;-71
2023/01/04 15:35:15;;;;;;;1.57;1.47;;;10.60;99.90;;;;;;4966546;28;20467;-71
2023/01/04 15:37:42;;;;;;;1.47;1.27;;;10.60;99.90;;;;;;4965580;28;21027;-71
2023/01/04 15:40:12;;;;;;;3.60;1.23;;;10.60;99.90;;;;;;4966143;28;20484;-71
2023/01/04 15:45:23;;;;;;;2.00;1.20;;;10.50;99.90;;;;;;4966564;28;20424;-71
2023/01/04 15:47:50;;;;;;;1.40;1.03;;;10.50;99.90;;;;;;4965971;28;20468;-72
2023/01/04 15:50:19;;;;;;;0.90;0.90;;;10.50;99.90;;;;;;4966432;28;20498;-71
2023/01/04 15:52:46;;;;;;;1.70;1.10;;;10.60;99.90;;;;;;4966509;28;20946;-71
2023/01/04 15:55:13;;;;;;;1.40;1.03;;;10.60;99.90;;;;;;4966862;28;20461;-71
2023/01/04 15:57:40;;;;;;;1.30;1.20;;;10.50;99.90;;;;;;4965847;28;20456;-72
2023/01/04 16:00:08;;;;;;;4.90;1.00;;;10.60;99.90;;;;;;4966702;28;20459;-71
2023/01/04 16:02:40;;;;;;;1.97;1.27;;;10.60;99.90;;;;;;4966559;28;20482;-71
2023/01/04 16:05:08;;;;;;;3.33;1.43;;;10.60;99.90;;;;;;4966544;28;20532;-71
2023/01/04 16:07:36;;;;;;;1.73;1.37;;;10.60;99.90;;;;;;4966583;28;20448;-72
2023/01/04 16:10:03;;;;;;;1.07;0.97;;;10.60;99.90;;;;;;4970988;28;20530;-72
2023/01/04 16:12:42;;;;;;;2.20;1.50;;;10.60;99.90;;;;;;4970280;28;20475;-74
2023/01/04 16:15:11;;;;;;;3.10;1.40;;;10.60;99.90;;;;;;4970193;28;20460;-74
2023/01/04 16:17:39;;;;;;;2.20;1.33;;;10.60;99.90;;;;;;4968985;28;20456;-75
2023/01/04 16:20:07;;;;;;;1.80;1.47;;;10.60;99.90;;;;;;4970014;28;20456;-75
2023/01/04 16:22:35;;;;;;;2.47;1.70;;;10.60;99.90;;;;;;4970074;28;20479;-75
2023/01/04 16:25:02;;;;;;;1.57;1.33;;;10.60;99.90;;;;;;4970105;28;20452;-74
2023/01/04 16:27:31;;;;;;;1.43;1.30;;;10.60;99.90;;;;;;4969227;28;20460;-74
2023/01/04 16:29:59;;;;;;;1.30;1.20;;;10.50;99.90;;;;;;4969926;28;20917;-75
2023/01/04 16:32:26;;;;;;;1.23;1.10;;;10.50;99.90;;;;;;4969774;28;20479;-75
2023/01/04 16:34:53;;;;;;;1.37;1.27;;;10.50;99.90;;;;;;4969515;28;20929;-75
2023/01/04 16:37:25;;;;;;;2.63;1.67;;;10.50;99.90;;;;;;4969004;28;20949;-75
2023/01/04 16:39:57;;;;;;;4.37;1.60;;;10.50;99.90;;;;;;4969966;28;20437;-75
2023/01/04 16:42:24;;;;;;;1.40;1.30;;;10.60;99.90;;;;;;4969403;28;20472;-74
2023/01/04 16:44:51;;;;;;;1.30;1.20;;;10.50;99.90;;;;;;4968141;28;20460;-74
2023/01/04 16:47:17;;;;;;;2.87;1.43;;;10.50;99.90;;;;;;4969079;28;20463;-74
2023/01/04 16:49:44;;;;;;;3.70;1.57;;;10.50;99.90;;;;;;4969352;28;20831;-74
2023/01/04 16:52:12;;;;;;;1.83;1.40;;;10.50;99.90;;;;;;4969281;28;20473;-73
2023/01/04 16:54:39;;;;;;;5.00;1.50;;;10.50;99.90;;;;;;4969335;28;20456;-73
2023/01/04 16:57:07;;;;;;;1.30;1.20;;;10.60;99.90;;;;;;4968421;28;20861;-73
2023/01/04 16:59:34;;;;;;;1.77;1.60;;;10.50;99.90;;;;;;4969234;28;20452;-73
2023/01/04 17:02:01;;;;;;;1.30;1.03;;;10.50;99.90;;;;;;4968888;28;20915;-73
2023/01/04 17:04:28;;;;;;;2.93;1.50;;;10.50;99.90;;;;;;4969523;28;20492;-74
2023/01/04 17:06:57;;;;;;;2.30;1.37;;;10.60;99.90;;;;;;4968897;28;20468;-75
2023/01/04 17:09:23;;;;;;;1.57;1.20;;;10.60;99.90;;;;;;4969199;28;20469;-76
2023/01/04 17:11:58;;;;;;;1.80;1.20;;;10.60;99.90;;;;;;4968874;28;20508;-75
2023/01/04 17:14:28;;;;;;;1.33;1.23;;;10.60;99.90;;;;;;4969477;28;20464;-74
2023/01/04 17:16:55;;;;;;;1.27;1.17;;;10.60;99.90;;;;;;4968717;28;20447;-75
2023/01/04 17:19:23;;;;;;;3.63;1.57;;;10.60;99.90;;;;;;4967916;28;20956;-73
2023/01/04 17:21:49;;;;;;;1.20;1.10;;;10.60;99.90;;;;;;4968631;28;20555;-74
2023/01/04 17:24:17;;;;;;;1.23;1.10;;;10.70;99.90;;;;;;4968269;28;20523;-74
2023/01/04 17:26:44;;;;;;;1.80;1.33;;;10.70;99.90;;;;;;4967983;28;20828;-75
2023/01/04 17:29:12;;;;;;;1.80;1.17;;;10.70;99.90;;;;;;4968219;28;20464;-75
2023/01/04 17:31:42;;;;;;;1.63;1.20;;;10.70;99.90;;;;;;4968301;28;20502;-76
2023/01/04 17:34:12;;;;;;;2.43;1.03;;;10.70;99.90;;;;;;4968757;28;20648;-74
2023/01/04 17:36:39;;;;;;;1.30;1.10;;;10.80;99.90;;;;;;4968115;28;20514;-73
2023/01/04 17:39:08;;;;;;;2.93;1.77;;;10.70;99.90;;;;;;4968430;28;21261;-75
2023/01/04 17:41:35;;;;;;;1.30;1.20;;;10.80;99.90;;;;;;4968500;28;20473;-74
2023/01/04 17:44:04;;;;;;;3.70;1.30;;;10.80;99.90;;;;;;4967793;28;20461;-74
2023/01/04 17:46:32;;;;;;;1.43;1.33;;;10.70;99.90;;;;;;4967894;28;20487;-75
2023/01/04 17:49:02;;;;;;;1.50;1.20;;;10.80;99.90;;;;;;4968106;28;20459;-74
2023/01/04 17:51:29;;;;;;;1.57;1.20;;;10.80;99.90;;;;;;4968048;28;21410;-74
2023/01/04 17:53:58;;;;;;;3.43;1.30;;;10.80;99.90;;;;;;4968014;28;20459;-75
2023/01/04 17:56:27;;;;;;;2.83;1.43;;;10.80;99.90;;;;;;4967279;28;20452;-75
2023/01/04 17:58:55;;;;;;;1.27;1.17;;;10.80;99.90;;;;;;4974210;28;20448;-75
2023/01/04 18:01:23;;;;;;;1.60;1.10;;;10.80;99.90;;;;;;4987371;28;20494;-75
2023/01/04 18:03:52;;;;;;;2.13;1.50;;;10.80;99.90;;;;;;4987456;28;21207;-75
2023/01/04 18:06:23;;;;;;;1.50;1.30;;;10.80;99.90;;;;;;4986989;28;20452;-75
2023/01/04 18:08:50;;;;;;;4.60;1.37;;;10.80;99.90;;;;;;4987754;28;20448;-75
2023/01/04 18:11:19;;;;;;;3.93;1.20;;;10.90;99.90;;;;;;4987416;28;20503;-75
2023/01/04 18:13:46;;;;;;;2.70;1.40;;;10.90;99.90;;;;;;4987609;28;20462;-75
2023/01/04 18:16:15;;;;;;;1.37;1.00;;;10.90;99.90;;;;;;4986606;28;20460;-76
2023/01/04 18:18:42;;;;;;;1.83;1.00;;;10.90;99.90;;;;;;4987613;28;20456;-75
2023/01/04 18:21:11;;;;;;;1.33;1.23;;;10.90;99.90;;;;;;4986978;28;21068;-75